Time;durP1;ratioP1;P1;durP2;ratioP2;P2;SDS_P1;SDS_P2;PMS_P1;PMS_P2;Temp;Humidity;BMP_temperature;BMP_pressure;BME280_temperature;BME280_humidity;BME280_pressure;Samples;Min_cycle;Max_cycle;Signal;HPM_P1;HPM_P2
2023/05/10 00:01:25;;;;;;;9.33;5.97;;;;;;;;;;5099218;28;20429;-85
2023/05/10 00:03:55;;;;;;;7.27;6.40;;;;;;;;;;5101391;28;20449;-85
2023/05/10 00:06:23;;;;;;;6.20;5.60;;;13.10;99.90;;;;;;5095430;28;20473;-84
2023/05/10 00:08:50;;;;;;;9.07;6.03;;;13.10;99.90;;;;;;5093123;28;20508;-85
2023/05/10 00:11:16;;;;;;;6.73;6.13;;;13.00;99.90;;;;;;5094076;28;20473;-85
2023/05/10 00:13:43;;;;;;;7.57;6.47;;;12.90;99.90;;;;;;5092254;28;20462;-86
2023/05/10 00:16:11;;;;;;;10.67;6.83;;;13.00;99.90;;;;;;5091212;28;20871;-86
2023/05/10 00:18:38;;;;;;;7.93;6.13;;;12.90;99.90;;;;;;5088500;28;20456;-86
2023/05/10 00:21:05;;;;;;;7.47;6.63;;;12.80;99.90;;;;;;5089130;28;20480;-85
2023/05/10 00:23:34;;;;;;;8.27;7.47;;;12.80;99.90;;;;;;5090734;28;20513;-86
2023/05/10 00:26:01;;;;;;;5.80;5.30;;;12.80;99.90;;;;;;5088928;28;20842;-87
2023/05/10 00:28:29;;;;;;;6.57;5.97;;;12.90;99.90;;;;;;5087286;28;20444;-86
2023/05/10 00:30:56;;;;;;;7.37;6.00;;;12.80;99.90;;;;;;5084067;28;20442;-86
2023/05/10 00:33:23;;;;;;;9.47;6.43;;;12.70;99.90;;;;;;5084318;28;20470;-86
2023/05/10 00:35:50;;;;;;;7.33;6.63;;;12.70;99.90;;;;;;5085522;28;20448;-85
2023/05/10 00:38:16;;;;;;;6.93;6.23;;;12.70;99.90;;;;;;5085179;28;20467;-85
2023/05/10 00:40:45;;;;;;;10.83;6.50;;;12.90;1.00;;;;;;5084048;28;20453;-86
2023/05/10 00:43:12;;;;;;;8.13;5.93;;;12.70;99.90;;;;;;5078868;28;20472;-86
2023/05/10 00:45:44;;;;;;;7.53;6.73;;;12.80;99.90;;;;;;5083128;28;20571;-86
2023/05/10 00:48:11;;;;;;;7.77;6.97;;;12.60;99.90;;;;;;5084539;28;20540;-86
2023/05/10 00:50:39;;;;;;;8.73;7.00;;;12.60;99.90;;;;;;5085396;28;20834;-86
2023/05/10 00:53:10;;;;;;;7.60;6.90;;;12.60;99.90;;;;;;5084864;28;20476;-87
2023/05/10 00:55:37;;;;;;;10.63;7.67;;;12.50;99.90;;;;;;5085756;28;20443;-86
2023/05/10 00:58:06;;;;;;;14.23;8.27;;;12.50;99.90;;;;;;5083721;28;20477;-86
2023/05/10 01:00:34;;;;;;;8.10;7.40;;;12.60;99.90;;;;;;5083563;28;20509;-86
2023/05/10 01:03:01;;;;;;;8.57;7.60;;;12.70;99.90;;;;;;5085425;28;20975;-86
2023/05/10 01:05:28;;;;;;;11.13;7.40;;;12.40;99.90;;;;;;5083627;28;20442;-86
2023/05/10 01:07:55;;;;;;;8.40;7.70;;;12.40;99.90;;;;;;5083729;28;20433;-86
2023/05/10 01:10:22;;;;;;;8.17;7.27;;;12.30;1.00;;;;;;5084442;28;20481;-86
2023/05/10 01:12:51;;;;;;;7.83;7.20;;;12.40;99.90;;;;;;5084906;28;20449;-87
2023/05/10 01:15:24;;;;;;;10.30;7.33;;;12.40;99.90;;;;;;5084351;28;20461;-86
2023/05/10 01:17:53;;;;;;;7.73;6.97;;;12.20;1.00;;;;;;5084576;28;20429;-86
2023/05/10 01:20:21;;;;;;;7.60;6.60;;;12.30;99.90;;;;;;5089631;28;20461;-87
2023/05/10 01:23:12;;;;;;;9.03;8.27;;;12.30;99.90;;;;;;5091810;28;20469;-86
2023/05/10 01:25:56;;;;;;;7.20;6.27;;;12.20;99.90;;;;;;5092364;28;20504;-85
2023/05/10 01:28:42;;;;;;;8.33;7.23;;;12.10;1.00;;;;;;5087740;28;20445;-85
2023/05/10 01:31:38;;;;;;;8.57;7.57;;;12.20;99.90;;;;;;5088843;28;20464;-85
2023/05/10 01:34:10;;;;;;;7.63;6.93;;;12.10;99.90;;;;;;5085920;28;20470;-86
2023/05/10 01:36:49;;;;;;;10.30;7.43;;;12.10;1.00;;;;;;5081799;28;20453;-86
2023/05/10 01:39:26;;;;;;;7.53;6.87;;;12.10;99.90;;;;;;5079919;28;20455;-86
2023/05/10 01:42:02;;;;;;;8.13;7.43;;;12.00;1.00;;;;;;5081930;28;20436;-86
2023/05/10 01:44:42;;;;;;;7.63;6.83;;;12.00;99.90;;;;;;5130174;22;20496;-78
2023/05/10 01:47:13;;;;;;;7.57;6.87;;;12.00;99.90;;;;;;5099634;28;20496;-79
2023/05/10 01:49:46;;;;;;;11.77;7.23;;;11.90;99.90;;;;;;5099494;28;20516;-79
2023/05/10 01:52:15;;;;;;;8.50;7.57;;;11.90;99.90;;;;;;5100177;28;20472;-78
2023/05/10 01:54:50;;;;;;;10.40;6.77;;;11.90;99.90;;;;;;5098913;28;20464;-79
2023/05/10 01:57:20;;;;;;;8.23;7.43;;;11.80;99.90;;;;;;5099686;28;20459;-78
2023/05/10 01:59:50;;;;;;;7.70;6.90;;;11.80;99.90;;;;;;5098141;28;20451;-78
2023/05/10 02:02:20;;;;;;;7.30;6.70;;;11.80;99.90;;;;;;5098859;28;20925;-80
2023/05/10 02:04:50;;;;;;;9.13;6.90;;;11.70;99.90;;;;;;5099471;28;20452;-79
2023/05/10 02:07:19;;;;;;;9.00;7.23;;;11.70;99.90;;;;;;5106262;28;20539;-78
2023/05/10 02:09:47;;;;;;;8.60;7.17;;;11.70;99.90;;;;;;5106534;28;20444;-78
2023/05/10 02:12:16;;;;;;;7.27;6.67;;;11.50;1.00;;;;;;5107268;28;20510;-79
2023/05/10 02:14:44;;;;;;;7.40;6.70;;;11.70;99.90;;;;;;5107824;28;20457;-78
2023/05/10 02:17:12;;;;;;;7.70;6.90;;;11.70;99.90;;;;;;5106640;28;20443;-78
2023/05/10 02:19:41;;;;;;;8.00;6.90;;;11.70;99.90;;;;;;5108943;28;20448;-78
2023/05/10 02:22:10;;;;;;;6.73;6.20;;;11.60;99.90;;;;;;5109934;28;20527;-78
2023/05/10 02:24:38;;;;;;;7.47;6.40;;;11.30;1.00;;;;;;5108736;28;21022;-78
2023/05/10 02:27:06;;;;;;;8.47;7.67;;;11.60;99.90;;;;;;5103802;28;20471;-79
2023/05/10 02:29:34;;;;;;;8.40;7.60;;;11.50;99.90;;;;;;5102392;28;20436;-79
2023/05/10 02:32:02;;;;;;;7.20;6.60;;;11.50;99.90;;;;;;5113184;28;20447;-78
2023/05/10 02:34:30;;;;;;;6.97;6.20;;;11.40;99.90;;;;;;5115963;28;20498;-78
2023/05/10 02:37:00;;;;;;;7.40;6.70;;;11.40;99.90;;;;;;5111795;28;20464;-79
2023/05/10 02:39:30;;;;;;;8.03;7.20;;;11.40;99.90;;;;;;5113288;28;20510;-78
2023/05/10 02:41:58;;;;;;;7.63;6.83;;;11.40;99.90;;;;;;5112293;28;20443;-78
2023/05/10 02:44:27;;;;;;;8.73;6.47;;;11.40;99.90;;;;;;5103088;28;20468;-78
2023/05/10 02:46:55;;;;;;;7.37;6.57;;;11.30;99.90;;;;;;5099014;28;20530;-79
2023/05/10 02:49:22;;;;;;;6.97;6.43;;;11.30;99.90;;;;;;5098763;28;20448;-79
2023/05/10 02:51:55;;;;;;;11.10;7.13;;;11.30;99.90;;;;;;5098337;28;20938;-79
2023/05/10 02:54:25;;;;;;;7.80;6.23;;;11.40;99.90;;;;;;5097748;28;20468;-79
2023/05/10 02:56:58;;;;;;;9.40;6.80;;;11.30;99.90;;;;;;5100560;28;20434;-79
2023/05/10 02:59:25;;;;;;;7.33;6.13;;;11.40;99.90;;;;;;5114384;28;20427;-79
2023/05/10 03:01:52;;;;;;;8.50;6.90;;;11.40;99.90;;;;;;5116621;28;20444;-79
2023/05/10 03:04:19;;;;;;;8.60;6.30;;;11.30;99.90;;;;;;5114413;28;20439;-79
2023/05/10 03:06:46;;;;;;;6.87;6.27;;;11.20;99.90;;;;;;5113366;28;20551;-79
2023/05/10 03:09:15;;;;;;;7.50;6.13;;;11.20;99.90;;;;;;5110537;28;20427;-79
2023/05/10 03:11:52;;;;;;;9.47;6.57;;;11.20;99.90;;;;;;5105316;28;20523;-79
2023/05/10 03:14:35;;;;;;;7.70;7.00;;;11.20;99.90;;;;;;5104672;28;20493;-79
2023/05/10 03:17:09;;;;;;;7.43;6.70;;;11.10;99.90;;;;;;5103362;28;20425;-79
2023/05/10 03:19:46;;;;;;;7.60;6.80;;;11.20;99.90;;;;;;5102707;28;20503;-79
2023/05/10 03:22:22;;;;;;;7.80;5.60;;;11.10;99.90;;;;;;5108013;28;20447;-78
2023/05/10 03:24:50;;;;;;;7.70;6.47;;;11.00;99.90;;;;;;5112364;28;20459;-78
2023/05/10 03:27:17;;;;;;;6.57;5.97;;;11.10;99.90;;;;;;5112164;28;20482;-78
2023/05/10 03:29:47;;;;;;;7.80;5.73;;;11.00;99.90;;;;;;5108640;28;20427;-78
2023/05/10 03:32:14;;;;;;;6.57;5.87;;;11.00;99.90;;;;;;5113202;28;20440;-78
2023/05/10 03:34:43;;;;;;;7.40;6.70;;;11.00;99.90;;;;;;5117551;28;20532;-78
2023/05/10 03:37:10;;;;;;;6.73;6.17;;;11.00;99.90;;;;;;5117587;28;20433;-77
2023/05/10 03:39:37;;;;;;;10.27;7.03;;;11.00;99.90;;;;;;5118299;28;20443;-78
2023/05/10 03:42:04;;;;;;;6.80;6.00;;;11.00;99.90;;;;;;5116740;28;20472;-78
2023/05/10 03:44:31;;;;;;;6.03;5.53;;;11.00;99.90;;;;;;5112962;28;20510;-78
2023/05/10 03:46:59;;;;;;;6.37;5.73;;;11.00;99.90;;;;;;5100642;28;20918;-78
2023/05/10 03:49:26;;;;;;;6.93;6.27;;;11.00;99.90;;;;;;5096686;28;20458;-78
2023/05/10 03:51:52;;;;;;;6.33;5.77;;;11.00;99.90;;;;;;5095564;28;20448;-79
2023/05/10 03:54:20;;;;;;;7.20;5.40;;;11.00;99.90;;;;;;5096165;28;20831;-78
2023/05/10 03:56:47;;;;;;;13.53;6.47;;;11.00;99.90;;;;;;5095935;28;20478;-80
2023/05/10 03:59:14;;;;;;;7.33;6.60;;;11.00;99.90;;;;;;5096022;28;20444;-78
2023/05/10 04:01:41;;;;;;;11.27;6.00;;;10.90;99.90;;;;;;5095444;28;20427;-78
2023/05/10 04:04:09;;;;;;;8.67;5.80;;;10.90;99.90;;;;;;5095630;28;20468;-78
2023/05/10 04:06:36;;;;;;;6.70;6.00;;;10.90;99.90;;;;;;5096458;28;20798;-79
2023/05/10 04:09:04;;;;;;;6.17;5.60;;;11.00;99.90;;;;;;5095121;28;20452;-78
2023/05/10 04:11:31;;;;;;;7.07;5.10;;;11.00;99.90;;;;;;5095365;28;20484;-78
2023/05/10 04:13:58;;;;;;;9.20;7.63;;;10.90;99.90;;;;;;5095663;28;20468;-78
2023/05/10 04:16:25;;;;;;;9.03;6.13;;;11.00;99.90;;;;;;5095375;28;20444;-79
2023/05/10 04:18:52;;;;;;;6.00;5.40;;;11.00;99.90;;;;;;5096569;28;20519;-80
2023/05/10 04:21:20;;;;;;;5.93;5.33;;;11.00;99.90;;;;;;5097532;28;20947;-80
2023/05/10 04:23:47;;;;;;;7.00;5.90;;;11.10;99.90;;;;;;5100536;28;20554;-79
2023/05/10 04:26:14;;;;;;;7.43;5.77;;;11.10;99.90;;;;;;5101412;28;20790;-79
2023/05/10 04:28:40;;;;;;;8.50;5.97;;;11.10;99.90;;;;;;5101084;28;20476;-80
2023/05/10 04:31:09;;;;;;;7.77;6.17;;;11.10;99.90;;;;;;5101023;28;20475;-80
2023/05/10 04:33:36;;;;;;;8.27;6.43;;;;;;;;;;5103388;28;20452;-79
2023/05/10 04:36:03;;;;;;;9.70;6.33;;;11.20;99.90;;;;;;5110350;28;20436;-79
2023/05/10 04:38:31;;;;;;;7.73;6.27;;;11.20;99.90;;;;;;5109159;28;20459;-79
2023/05/10 04:41:06;;;;;;;6.03;5.40;;;11.30;99.90;;;;;;5101676;28;20499;-79
2023/05/10 04:43:33;;;;;;;8.50;6.30;;;11.30;99.90;;;;;;5097897;28;20491;-79
2023/05/10 04:45:59;;;;;;;6.10;5.40;;;11.30;99.90;;;;;;5098203;28;20452;-80
2023/05/10 04:48:26;;;;;;;8.63;5.63;;;11.40;99.90;;;;;;5100122;28;20483;-79
2023/05/10 04:50:53;;;;;;;7.63;5.60;;;11.40;99.90;;;;;;5100011;28;20480;-78
2023/05/10 04:53:20;;;;;;;9.40;5.47;;;11.40;99.90;;;;;;5100781;28;20466;-79
2023/05/10 04:55:48;;;;;;;10.80;5.67;;;11.50;99.90;;;;;;5110436;28;20512;-78
2023/05/10 04:58:15;;;;;;;7.40;6.30;;;11.60;99.90;;;;;;5109274;28;20441;-78
2023/05/10 05:00:42;;;;;;;12.23;5.90;;;11.60;99.90;;;;;;5106538;28;20476;-79
2023/05/10 05:03:09;;;;;;;8.13;5.33;;;11.70;99.90;;;;;;5100603;28;20496;-79
2023/05/10 05:05:36;;;;;;;6.30;4.57;;;11.80;99.90;;;;;;5100140;28;20521;-79
2023/05/10 05:08:03;;;;;;;13.73;6.40;;;11.80;99.90;;;;;;5099755;28;21081;-78
2023/05/10 05:10:30;;;;;;;6.20;5.70;;;11.90;99.90;;;;;;5100160;28;20448;-78
2023/05/10 05:12:58;;;;;;;6.43;5.83;;;12.00;99.90;;;;;;5099903;28;20513;-78
2023/05/10 05:15:25;;;;;;;7.67;5.20;;;12.00;99.90;;;;;;5100165;28;20444;-78
2023/05/10 05:17:54;;;;;;;5.30;4.67;;;12.10;99.90;;;;;;5102377;28;20482;-79
2023/05/10 05:20:21;;;;;;;10.13;6.40;;;12.20;99.90;;;;;;5106374;28;20875;-79
2023/05/10 05:22:48;;;;;;;7.23;5.27;;;12.70;99.90;;;;;;5106512;28;20524;-80
2023/05/10 05:25:15;;;;;;;7.20;5.90;;;12.40;99.90;;;;;;5099223;28;20882;-80
2023/05/10 05:27:42;;;;;;;5.10;4.70;;;12.40;99.90;;;;;;5100837;28;20848;-79
2023/05/10 05:30:12;;;;;;;7.50;5.10;;;12.50;99.90;;;;;;5106277;28;20543;-80
2023/05/10 05:32:39;;;;;;;8.93;5.53;;;12.60;99.90;;;;;;5104316;28;20468;-79
2023/05/10 05:35:06;;;;;;;6.63;5.27;;;12.60;99.90;;;;;;5103208;28;20448;-78
2023/05/10 05:37:33;;;;;;;6.97;5.23;;;12.80;99.90;;;;;;5101335;28;20440;-79
2023/05/10 05:40:01;;;;;;;7.80;4.97;;;12.80;99.90;;;;;;5104404;28;20448;-78
2023/05/10 05:42:28;;;;;;;4.77;4.37;;;12.90;1.00;;;;;;5109311;28;20822;-78
2023/05/10 05:44:55;;;;;;;4.73;4.37;;;12.90;99.90;;;;;;5112948;28;20429;-77
2023/05/10 05:47:23;;;;;;;5.90;4.30;;;13.00;99.90;;;;;;5112910;28;20590;-78
2023/05/10 05:49:50;;;;;;;6.40;4.70;;;13.10;99.90;;;;;;5112947;28;20479;-78
2023/05/10 05:52:18;;;;;;;5.33;4.10;;;13.20;99.90;;;;;;5103960;28;20451;-80
2023/05/10 05:54:45;;;;;;;4.30;3.57;;;13.30;99.90;;;;;;5102031;28;20876;-79
2023/05/10 05:57:11;;;;;;;4.30;3.90;;;13.20;1.00;;;;;;5100054;28;20441;-79
2023/05/10 05:59:41;;;;;;;6.30;4.50;;;13.30;99.90;;;;;;5098822;28;20452;-80
2023/05/10 06:02:08;;;;;;;5.03;3.80;;;13.40;99.90;;;;;;5101556;28;20456;-81
2023/05/10 06:04:37;;;;;;;7.07;4.70;;;13.40;99.90;;;;;;5100188;28;20559;-80
2023/05/10 06:07:03;;;;;;;5.13;3.87;;;13.40;99.90;;;;;;5099506;28;20483;-79
2023/05/10 06:09:30;;;;;;;4.70;4.20;;;13.50;99.90;;;;;;5097282;28;20994;-80
2023/05/10 06:11:57;;;;;;;4.60;4.20;;;13.50;99.90;;;;;;5097754;28;20455;-80
2023/05/10 06:14:24;;;;;;;5.40;4.17;;;13.50;99.90;;;;;;5099035;28;20571;-79
2023/05/10 06:16:51;;;;;;;6.20;4.10;;;13.50;99.90;;;;;;5099394;28;20527;-79
2023/05/10 06:19:18;;;;;;;4.97;3.93;;;13.60;99.90;;;;;;5098766;28;20459;-79
2023/05/10 06:21:47;;;;;;;6.13;4.20;;;13.70;99.90;;;;;;5099420;28;20472;-79
2023/05/10 06:24:14;;;;;;;6.53;4.27;;;13.70;99.90;;;;;;5101096;28;20488;-80
2023/05/10 06:26:41;;;;;;;7.47;4.10;;;13.70;99.90;;;;;;5100673;28;20520;-80
2023/05/10 06:29:08;;;;;;;4.20;3.67;;;13.80;99.90;;;;;;5099820;28;20487;-79
2023/05/10 06:31:35;;;;;;;4.37;4.00;;;13.90;99.90;;;;;;5100113;28;20478;-79
2023/05/10 06:34:02;;;;;;;4.83;4.23;;;13.90;99.90;;;;;;5107198;28;20524;-79
2023/05/10 06:36:29;;;;;;;14.33;4.93;;;14.00;99.90;;;;;;5108927;28;20449;-79
2023/05/10 06:38:57;;;;;;;8.00;3.80;;;14.10;99.90;;;;;;5099827;28;20870;-79
2023/05/10 06:41:24;;;;;;;4.80;3.30;;;14.20;99.90;;;;;;5099023;28;20440;-80
2023/05/10 06:43:51;;;;;;;7.03;3.57;;;14.20;99.90;;;;;;5100234;28;20468;-78
2023/05/10 06:46:17;;;;;;;4.20;3.80;;;14.30;99.90;;;;;;5102542;28;20512;-78
2023/05/10 06:48:45;;;;;;;4.90;3.17;;;14.40;99.90;;;;;;5111801;28;20499;-78
2023/05/10 06:51:11;;;;;;;4.43;3.87;;;14.30;1.00;;;;;;5118039;28;20424;-78
2023/05/10 06:53:38;;;;;;;4.93;4.10;;;14.50;99.90;;;;;;5117576;28;20475;-79
2023/05/10 06:56:06;;;;;;;4.90;4.03;;;14.60;99.90;;;;;;5114092;28;20953;-79
2023/05/10 06:58:33;;;;;;;5.70;3.57;;;14.70;99.90;;;;;;5109954;28;20475;-78
2023/05/10 07:01:03;;;;;;;10.20;3.73;;;14.70;99.90;;;;;;5108130;28;20523;-79
2023/05/10 07:03:30;;;;;;;3.97;3.67;;;14.80;99.90;;;;;;5101159;28;20464;-79
2023/05/10 07:06:02;;;;;;;5.27;4.40;;;14.90;99.90;;;;;;5101003;28;20429;-79
2023/05/10 07:08:29;;;;;;;9.40;4.10;;;15.00;99.90;;;;;;5100209;28;20469;-78
2023/05/10 07:11:01;;;;;;;3.87;3.27;;;15.00;99.90;;;;;;5098912;28;20527;-78
2023/05/10 07:13:31;;;;;;;4.67;4.30;;;15.10;99.90;;;;;;5097757;28;20514;-78
2023/05/10 07:15:59;;;;;;;3.83;3.10;;;15.20;99.90;;;;;;5098606;28;20436;-78
2023/05/10 07:18:26;;;;;;;4.27;3.70;;;15.20;99.90;;;;;;5098293;28;20456;-79
2023/05/10 07:20:53;;;;;;;8.43;3.70;;;15.30;99.90;;;;;;5099125;28;20448;-79
2023/05/10 07:23:20;;;;;;;4.90;4.33;;;15.30;99.90;;;;;;5103419;28;20491;-79
2023/05/10 07:25:47;;;;;;;4.20;3.90;;;15.50;99.90;;;;;;5108041;28;20444;-79
2023/05/10 07:28:14;;;;;;;10.07;3.60;;;15.60;1.00;;;;;;5099407;28;20483;-78
2023/05/10 07:30:43;;;;;;;4.63;4.23;;;15.70;99.90;;;;;;5099639;28;20826;-78
2023/05/10 07:33:11;;;;;;;5.53;3.80;;;15.80;99.90;;;;;;5098866;28;20463;-79
2023/05/10 07:35:38;;;;;;;4.87;3.93;;;15.90;99.90;;;;;;5109511;28;20595;-78
2023/05/10 07:38:05;;;;;;;4.80;3.30;;;15.90;99.90;;;;;;5108393;28;20524;-78
2023/05/10 07:40:35;;;;;;;6.43;3.20;;;16.60;99.90;;;;;;5111360;28;20456;-78
2023/05/10 07:43:02;;;;;;;3.30;3.00;;;15.70;1.00;;;;;;5127987;22;20928;-86
2023/05/10 07:45:28;;;;;;;3.17;2.90;;;15.70;99.90;;;;;;5102111;28;20488;-86
2023/05/10 07:47:57;;;;;;;4.07;3.63;;;15.80;99.90;;;;;;5102004;28;20484;-87
2023/05/10 07:50:24;;;;;;;3.77;3.10;;;15.80;99.90;;;;;;5101430;28;21012;-85
2023/05/10 07:52:50;;;;;;;3.40;3.10;;;15.90;1.00;;;;;;5100373;28;20815;-86
2023/05/10 07:55:19;;;;;;;4.07;3.73;;;16.10;99.90;;;;;;5100635;28;20472;-86
2023/05/10 07:57:46;;;;;;;3.37;3.10;;;16.10;99.90;;;;;;5102213;28;20508;-86
2023/05/10 08:00:17;;;;;;;3.77;3.23;;;16.10;99.90;;;;;;5102752;28;20820;-86
2023/05/10 08:02:44;;;;;;;3.57;3.27;;;16.30;1.00;;;;;;5103668;28;20432;-86
2023/05/10 08:05:13;;;;;;;4.13;3.20;;;16.30;99.90;;;;;;5103240;28;20455;-86
2023/05/10 08:07:40;;;;;;;5.03;3.10;;;16.30;99.90;;;;;;5106245;28;20478;-85
2023/05/10 08:10:08;;;;;;;5.60;3.43;;;16.30;99.90;;;;;;5120880;28;20452;-85
2023/05/10 08:12:35;;;;;;;4.67;3.40;;;16.40;99.90;;;;;;5104308;28;20444;-86
2023/05/10 08:15:03;;;;;;;4.30;3.90;;;16.90;1.00;;;;;;5103748;28;20487;-87
2023/05/10 08:17:29;;;;;;;5.90;3.23;;;17.00;1.00;;;;;;5103241;28;20448;-85
2023/05/10 08:19:57;;;;;;;4.00;3.03;;;16.60;99.90;;;;;;5103232;28;20444;-86
2023/05/10 08:22:25;;;;;;;3.43;3.13;;;16.70;99.90;;;;;;5104498;28;20440;-85
2023/05/10 08:24:52;;;;;;;3.83;3.40;;;16.70;99.90;;;;;;5103889;28;20474;-86
2023/05/10 08:27:19;;;;;;;5.27;3.63;;;16.70;99.90;;;;;;5102104;28;20479;-87
2023/05/10 08:29:46;;;;;;;6.90;3.10;;;16.80;99.90;;;;;;5102510;28;20618;-87
2023/05/10 08:32:13;;;;;;;4.13;3.47;;;16.90;99.90;;;;;;5118356;28;20428;-87
2023/05/10 08:34:39;;;;;;;5.10;3.60;;;17.30;1.00;;;;;;5121707;28;20507;-85
2023/05/10 08:37:06;;;;;;;7.90;3.60;;;16.90;99.90;;;;;;5120613;28;20428;-86
2023/05/10 08:39:36;;;;;;;5.23;3.20;;;17.00;99.90;;;;;;5121302;28;20503;-85
2023/05/10 08:42:05;;;;;;;3.73;3.43;;;17.10;99.90;;;;;;5121116;28;20503;-85
2023/05/10 08:44:34;;;;;;;3.90;3.30;;;17.00;99.90;;;;;;5120980;28;20523;-86
2023/05/10 08:47:05;;;;;;;3.40;2.70;;;17.10;99.90;;;;;;5121526;28;20495;-85
2023/05/10 08:49:33;;;;;;;5.67;4.23;;;17.20;99.90;;;;;;5120167;28;20540;-85
2023/05/10 08:52:03;;;;;;;5.90;3.87;;;17.30;99.90;;;;;;5120675;28;20434;-86
2023/05/10 08:54:31;;;;;;;7.43;3.37;;;17.50;99.90;;;;;;5114710;28;21050;-86
2023/05/10 08:56:59;;;;;;;6.80;3.73;;;17.50;99.90;;;;;;5107564;28;20831;-87
2023/05/10 08:59:26;;;;;;;10.77;3.90;;;17.60;99.90;;;;;;5107176;28;20444;-86
2023/05/10 09:01:55;;;;;;;8.27;5.77;;;17.60;99.90;;;;;;5105596;28;20974;-87
2023/05/10 09:04:23;;;;;;;3.70;3.40;;;17.80;99.90;;;;;;5111586;28;20528;-88
2023/05/10 09:06:50;;;;;;;5.07;3.50;;;17.80;99.90;;;;;;5118780;28;20511;-87
2023/05/10 09:09:18;;;;;;;3.13;2.90;;;17.80;99.90;;;;;;5114869;28;20480;-87
2023/05/10 09:11:45;;;;;;;3.90;3.50;;;17.80;99.90;;;;;;5107641;28;20536;-86
2023/05/10 09:14:13;;;;;;;6.37;4.07;;;18.00;99.90;;;;;;5108449;28;20467;-86
2023/05/10 09:16:41;;;;;;;5.23;4.73;;;18.00;99.90;;;;;;5106403;28;20543;-86
2023/05/10 09:19:08;;;;;;;5.00;3.30;;;18.00;99.90;;;;;;5105089;28;20451;-84
2023/05/10 09:21:38;;;;;;;3.37;2.87;;;18.00;99.90;;;;;;5102128;28;20444;-84
2023/05/10 09:24:05;;;;;;;3.50;3.23;;;18.00;99.90;;;;;;5106799;28;20476;-85
2023/05/10 09:26:33;;;;;;;3.67;3.37;;;18.20;99.90;;;;;;5105178;28;20448;-84
2023/05/10 09:29:02;;;;;;;7.03;3.20;;;18.20;99.90;;;;;;5099212;28;20994;-84
2023/05/10 09:31:46;;;;;;;3.33;3.03;;;18.20;99.90;;;;;;5102718;28;20480;-85
2023/05/10 09:34:17;;;;;;;3.70;3.40;;;18.40;99.90;;;;;;5099951;28;20584;-85
2023/05/10 09:36:54;;;;;;;4.43;3.40;;;18.40;99.90;;;;;;5101921;28;20420;-85
2023/05/10 09:39:30;;;;;;;4.00;3.70;;;18.50;99.90;;;;;;5102925;28;20519;-85
2023/05/10 09:41:58;;;;;;;6.80;4.13;;;18.50;99.90;;;;;;5107706;28;20471;-85
2023/05/10 09:44:26;;;;;;;4.57;3.67;;;18.50;99.90;;;;;;5103144;28;20549;-85
2023/05/10 09:46:55;;;;;;;4.10;3.63;;;18.50;99.90;;;;;;5102780;28;20444;-86
2023/05/10 09:49:22;;;;;;;9.50;3.93;;;18.60;99.90;;;;;;5102361;28;20891;-86
2023/05/10 09:52:00;;;;;;;3.53;3.23;;;18.60;99.90;;;;;;5102812;28;20445;-86
2023/05/10 09:54:26;;;;;;;5.20;4.20;;;18.40;99.90;;;;;;5101323;28;20464;-85
2023/05/10 09:56:53;;;;;;;3.87;3.57;;;18.50;99.90;;;;;;5101916;28;20455;-86
2023/05/10 09:59:20;;;;;;;3.73;3.43;;;18.60;99.90;;;;;;5103048;28;20444;-85
2023/05/10 10:01:51;;;;;;;9.93;3.80;;;18.70;99.90;;;;;;5106758;28;20444;-86
2023/05/10 10:04:20;;;;;;;4.80;3.93;;;18.90;99.90;;;;;;5114575;28;20474;-85
2023/05/10 10:06:50;;;;;;;4.13;3.40;;;19.00;99.90;;;;;;5119737;28;20444;-87
2023/05/10 10:09:24;;;;;;;13.93;10.30;;;19.00;99.90;;;;;;5119979;28;20457;-86
2023/05/10 10:11:51;;;;;;;3.77;3.47;;;18.90;99.90;;;;;;5119671;28;20448;-84
2023/05/10 10:14:19;;;;;;;4.40;3.77;;;19.00;99.90;;;;;;5118901;28;20484;-85
2023/05/10 10:16:46;;;;;;;4.90;3.43;;;19.20;99.90;;;;;;5117918;28;20425;-85
2023/05/10 10:19:13;;;;;;;4.17;3.87;;;19.30;99.90;;;;;;5118092;28;20500;-86
2023/05/10 10:21:42;;;;;;;3.87;3.50;;;19.40;99.90;;;;;;5115820;28;20453;-85
2023/05/10 10:24:10;;;;;;;7.97;4.40;;;19.40;99.90;;;;;;5104091;28;20492;-85
2023/05/10 10:26:38;;;;;;;4.70;3.80;;;19.40;99.90;;;;;;5102518;28;20916;-86
2023/05/10 10:29:19;;;;;;;4.07;3.50;;;19.50;99.90;;;;;;5105822;28;20552;-85
2023/05/10 10:31:50;;;;;;;6.43;3.43;;;19.70;99.90;;;;;;5108368;28;20435;-84
2023/05/10 10:34:26;;;;;;;3.30;3.00;;;19.60;99.90;;;;;;5106957;28;20528;-85
2023/05/10 10:36:56;;;;;;;4.97;3.70;;;19.70;99.90;;;;;;5103841;28;20429;-85
2023/05/10 10:39:24;;;;;;;4.50;4.10;;;19.80;99.90;;;;;;5103274;28;20539;-86
2023/05/10 10:41:52;;;;;;;10.63;7.33;;;19.90;99.90;;;;;;5100581;28;20469;-85
2023/05/10 10:44:34;;;;;;;6.37;5.77;;;20.00;99.90;;;;;;5103703;28;20515;-84
2023/05/10 10:47:08;;;;;;;4.37;4.03;;;19.90;99.90;;;;;;5109642;28;20437;-84
2023/05/10 10:49:39;;;;;;;4.30;3.10;;;20.00;99.90;;;;;;5110472;28;20484;-85
2023/05/10 10:52:26;;;;;;;3.30;2.87;;;19.90;99.90;;;;;;5108860;28;20496;-84
2023/05/10 10:54:55;;;;;;;4.10;3.70;;;20.00;99.90;;;;;;5108440;28;20566;-85
2023/05/10 10:57:29;;;;;;;4.77;3.40;;;20.00;99.90;;;;;;5111722;28;20476;-85
2023/05/10 11:00:28;;;;;;;4.10;3.73;;;20.10;99.90;;;;;;5113495;28;20447;-85
2023/05/10 11:02:57;;;;;;;8.53;3.73;;;20.20;1.00;;;;;;5114874;28;20428;-87
2023/05/10 11:05:40;;;;;;;4.90;3.80;;;20.30;99.90;;;;;;5109353;28;20789;-86
2023/05/10 11:08:21;;;;;;;3.67;3.37;;;20.30;99.90;;;;;;5102487;28;20479;-85
2023/05/10 11:10:54;;;;;;;4.00;3.70;;;20.30;99.90;;;;;;5102149;28;20435;-84
2023/05/10 11:13:32;;;;;;;3.73;3.30;;;20.30;99.90;;;;;;5101832;28;20546;-85
2023/05/10 11:15:59;;;;;;;3.37;3.10;;;20.30;99.90;;;;;;5106908;28;20438;-86
2023/05/10 11:18:28;;;;;;;5.93;3.50;;;20.40;99.90;;;;;;5103786;28;20440;-85
2023/05/10 11:20:59;;;;;;;5.40;3.30;;;20.50;99.90;;;;;;5107139;28;20459;-85
2023/05/10 11:23:33;;;;;;;6.40;3.70;;;20.50;99.90;;;;;;5114549;28;20460;-85
2023/05/10 11:26:00;;;;;;;3.10;2.80;;;20.50;99.90;;;;;;5114620;28;20422;-85
2023/05/10 11:28:28;;;;;;;4.90;3.17;;;20.60;99.90;;;;;;5104019;28;20534;-86
2023/05/10 11:30:56;;;;;;;4.50;3.63;;;20.60;99.90;;;;;;5100927;28;20469;-84
2023/05/10 11:33:23;;;;;;;3.10;2.90;;;20.70;99.90;;;;;;5108766;28;20465;-86
2023/05/10 11:35:50;;;;;;;3.67;3.37;;;20.60;99.90;;;;;;5111235;28;20445;-85
2023/05/10 11:38:17;;;;;;;6.50;3.30;;;20.70;99.90;;;;;;5114312;28;20448;-84
2023/05/10 11:40:45;;;;;;;5.63;3.43;;;20.70;99.90;;;;;;5116823;28;20483;-84
2023/05/10 11:43:13;;;;;;;3.23;2.93;;;20.80;99.90;;;;;;5117660;28;20479;-85
2023/05/10 11:45:43;;;;;;;5.23;3.13;;;20.70;99.90;;;;;;5110905;28;20470;-85
2023/05/10 11:48:10;;;;;;;3.33;3.03;;;20.80;99.90;;;;;;5118298;28;20421;-87
2023/05/10 11:50:37;;;;;;;3.70;3.40;;;20.70;1.00;;;;;;5114623;28;20518;-85
2023/05/10 11:53:04;;;;;;;4.37;3.80;;;21.00;99.90;;;;;;5111158;28;20528;-85
2023/05/10 11:55:34;;;;;;;3.53;2.87;;;21.10;99.90;;;;;;5108797;28;20931;-87
2023/05/10 11:58:03;;;;;;;4.60;4.20;;;21.10;99.90;;;;;;5109776;28;20428;-84
2023/05/10 12:00:33;;;;;;;7.83;4.10;;;21.10;99.90;;;;;;5109032;28;20438;-86
2023/05/10 12:03:02;;;;;;;10.73;4.30;;;21.20;99.90;;;;;;5111257;28;20452;-87
2023/05/10 12:05:32;;;;;;;3.97;3.20;;;21.20;99.90;;;;;;5109375;28;20444;-86
2023/05/10 12:08:12;;;;;;;3.43;2.70;;;21.30;99.90;;;;;;5104396;28;20435;-85
2023/05/10 12:10:39;;;;;;;4.40;3.50;;;21.30;99.90;;;;;;5115402;28;20973;-85
2023/05/10 12:13:12;;;;;;;8.13;3.80;;;21.30;99.90;;;;;;5107846;28;20465;-87
2023/05/10 12:15:39;;;;;;;5.30;3.10;;;21.40;99.90;;;;;;5102833;28;20439;-86
2023/05/10 12:18:06;;;;;;;4.63;3.20;;;21.40;99.90;;;;;;5101865;28;20475;-86
2023/05/10 12:20:33;;;;;;;5.53;3.73;;;21.40;99.90;;;;;;5103113;28;20469;-86
2023/05/10 12:23:01;;;;;;;8.77;3.43;;;21.60;1.00;;;;;;5113023;28;20451;-85
2023/05/10 12:25:32;;;;;;;3.83;3.37;;;21.50;99.90;;;;;;5111790;28;20449;-84
2023/05/10 12:28:01;;;;;;;7.80;3.57;;;21.50;99.90;;;;;;5113717;28;20475;-84
2023/05/10 12:30:32;;;;;;;3.87;3.47;;;21.50;99.90;;;;;;5112254;28;20473;-86
2023/05/10 12:33:12;;;;;;;9.07;3.90;;;21.80;1.00;;;;;;5111262;28;20440;-88
2023/05/10 12:35:47;;;;;;;6.20;4.07;;;21.60;99.90;;;;;;5110957;28;20435;-85
2023/05/10 12:38:32;;;;;;;5.03;3.53;;;21.70;99.90;;;;;;5112811;28;20443;-86
2023/05/10 12:41:01;;;;;;;6.77;4.20;;;21.70;99.90;;;;;;5113383;28;20416;-86
2023/05/10 12:43:29;;;;;;;4.90;3.70;;;22.20;99.90;;;;;;5113150;28;20504;-86
2023/05/10 12:45:57;;;;;;;4.40;3.90;;;21.70;99.90;;;;;;5115629;28;20539;-86
2023/05/10 12:48:28;;;;;;;4.47;3.97;;;21.90;99.90;;;;;;5116988;28;20456;-86
2023/05/10 12:50:55;;;;;;;6.93;4.90;;;22.00;99.90;;;;;;5113917;28;20564;-85
2023/05/10 12:53:22;;;;;;;5.03;3.93;;;22.10;99.90;;;;;;5115980;28;20487;-86
2023/05/10 12:55:52;;;;;;;4.63;3.80;;;22.10;99.90;;;;;;5114577;28;20439;-86
2023/05/10 12:58:19;;;;;;;6.30;3.50;;;22.10;99.90;;;;;;5113594;28;20517;-85